Time;durP1;ratioP1;P1;durP2;ratioP2;P2;SDS_P1;SDS_P2;PMS_P1;PMS_P2;Temp;Humidity;BMP_temperature;BMP_pressure;BME280_temperature;BME280_humidity;BME280_pressure;Samples;Min_cycle;Max_cycle;Signal;HPM_P1;HPM_P2
2023/04/21 00:01:38;;;;;;;17.05;9.65;;;;;;;;;;4994092;28;20440;-84
2023/04/21 00:04:04;;;;;;;16.17;9.38;;;;;;;;;;4987709;28;20038;-82
2023/04/21 00:06:30;;;;;;;15.82;9.02;;;;;;;;;;4977735;28;20064;-84
2023/04/21 00:08:55;;;;;;;14.02;9.02;;;;;;;;;;5000021;28;20037;-83
2023/04/21 00:11:26;;;;;;;16.55;10.43;;;;;;;;;;4993886;28;20114;-84
2023/04/21 00:17:14;;;;;;;14.88;9.55;;;;;;;;;;4984786;28;20036;-82
2023/04/21 00:19:39;;;;;;;15.90;8.68;;;;;;;;;;4975882;23;20130;-82
2023/04/21 00:22:09;;;;;;;13.05;8.77;;;;;;;;;;4978018;28;20054;-84
2023/04/21 00:24:35;;;;;;;15.85;8.70;;;;;;;;;;4955942;28;20023;-83
2023/04/21 00:27:00;;;;;;;13.65;9.00;;;;;;;;;;4973953;28;20102;-82
2023/04/21 00:29:25;;;;;;;18.17;9.77;;;;;;;;;;4945740;28;20044;-83
2023/04/21 00:31:51;;;;;;;12.95;9.32;;;;;;;;;;4867614;29;20052;-82
2023/04/21 00:34:16;;;;;;;14.82;9.00;;;;;;;;;;4777048;29;20334;-81
2023/04/21 00:36:41;;;;;;;14.60;9.50;;;;;;;;;;4712593;30;20483;-81
2023/04/21 00:39:07;;;;;;;15.50;9.32;;;;;;;;;;4718106;30;20041;-81
2023/04/21 00:41:34;;;;;;;15.20;9.30;;;;;;;;;;4722360;30;20045;-82
2023/04/21 00:44:09;;;;;;;14.35;9.07;;;;;;;;;;4710383;30;20463;-82
2023/04/21 00:46:35;;;;;;;14.02;8.50;;;;;;;;;;4724997;30;20072;-82
2023/04/21 00:49:04;;;;;;;12.95;8.90;;;;;;;;;;4720978;30;20045;-83
2023/04/21 00:51:31;;;;;;;12.82;8.18;;;;;;;;;;4722074;30;20044;-83
2023/04/21 00:53:58;;;;;;;13.52;8.40;;;;;;;;;;4716642;30;20093;-83
2023/04/21 00:56:24;;;;;;;14.27;8.90;;;;;;;;;;4709736;30;20059;-83
2023/04/21 00:58:50;;;;;;;14.73;9.23;;;;;;;;;;4700162;30;20058;-83
2023/04/21 01:01:16;;;;;;;14.38;9.15;;;;;;;;;;4701540;30;20029;-83
2023/04/21 01:03:42;;;;;;;14.77;8.57;;;;;;;;;;4718773;30;20041;-82
2023/04/21 01:06:08;;;;;;;16.08;9.32;;;;;;;;;;4716472;30;20033;-83
2023/04/21 01:08:34;;;;;;;14.82;9.65;;;;;;;;;;4704627;30;20060;-83
2023/04/21 01:10:59;;;;;;;11.75;8.30;;;;;;;;;;4707450;30;20038;-82
2023/04/21 01:13:25;;;;;;;14.77;9.23;;;;;;;;;;4699598;30;20037;-82
2023/04/21 01:15:50;;;;;;;15.30;8.02;;;;;;;;;;4706450;30;20684;-84
2023/04/21 01:18:18;;;;;;;15.02;9.10;;;;;;;;;;4714252;30;20049;-83
2023/04/21 01:20:43;;;;;;;11.73;7.90;;;;;;;;;;4706278;30;20056;-81
2023/04/21 01:23:09;;;;;;;14.77;8.70;;;;;;;;;;4719443;30;20042;-83
2023/04/21 01:25:35;;;;;;;12.55;7.85;;;;;;;;;;4713752;30;20029;-82
2023/04/21 01:28:00;;;;;;;13.57;8.77;;;;;;;;;;4707408;30;20041;-83
2023/04/21 01:30:26;;;;;;;12.25;8.02;;;;;;;;;;4709899;30;20041;-86
2023/04/21 01:32:51;;;;;;;11.85;7.72;;;;;;;;;;4715880;30;20530;-83
2023/04/21 01:35:16;;;;;;;16.25;8.30;;;;;;;;;;4728768;30;20059;-82
2023/04/21 01:37:42;;;;;;;13.45;8.15;;;;;;;;;;4794035;29;20038;-84
2023/04/21 01:40:08;;;;;;;11.15;7.45;;;;;;;;;;4803989;29;20042;-83
2023/04/21 01:42:37;;;;;;;12.75;7.65;;;;;;;;;;4806411;29;20042;-83
2023/04/21 01:45:03;;;;;;;9.15;7.00;;;;;;;;;;4806974;29;20034;-82
2023/04/21 01:47:28;;;;;;;11.38;7.43;;;;;;;;;;4805015;29;20061;-83
2023/04/21 01:49:53;;;;;;;9.85;7.10;;;;;;;;;;4807976;29;20031;-83
2023/04/21 01:52:19;;;;;;;11.52;7.25;;;;;;;;;;4809902;29;20484;-84
2023/04/21 01:54:45;;;;;;;15.30;7.80;;;;;;;;;;4810504;29;20034;-84
2023/04/21 01:57:10;;;;;;;13.10;7.78;;;;;;;;;;4810210;29;20030;-82
2023/04/21 01:59:36;;;;;;;12.77;7.65;;;;;;;;;;4809575;29;20406;-82
2023/04/21 02:02:02;;;;;;;14.48;8.60;;;;;;;;;;4816789;29;20026;-81
2023/04/21 02:04:27;;;;;;;13.88;8.48;;;;;;;;;;4836814;29;20064;-83
2023/04/21 02:06:52;;;;;;;12.45;7.47;;;;;;;;;;4822125;29;20746;-83
2023/04/21 02:09:18;;;;;;;11.43;7.57;;;;;;;;;;4820121;29;20057;-84
2023/04/21 02:11:43;;;;;;;12.75;7.80;;;;;;;;;;4824371;29;20031;-83
2023/04/21 02:14:08;;;;;;;13.57;7.55;;;;;;;;;;4813390;29;20169;-83
2023/04/21 02:16:34;;;;;;;15.70;8.50;;;;;;;;;;4812395;29;20034;-83
2023/04/21 02:18:59;;;;;;;11.95;7.15;;;;;;;;;;4815786;29;20091;-83
2023/04/21 02:21:25;;;;;;;14.48;8.07;;;;;;;;;;4815768;29;20026;-82
2023/04/21 02:23:51;;;;;;;10.23;6.78;;;;;;;;;;4810872;29;20496;-81
2023/04/21 02:26:16;;;;;;;11.98;7.22;;;;;;;;;;4810631;29;20515;-82
2023/04/21 02:28:41;;;;;;;13.15;7.25;;;;;;;;;;4809397;29;20062;-82
2023/04/21 02:31:07;;;;;;;14.07;7.25;;;;;;;;;;4808839;29;20035;-81
2023/04/21 02:33:32;;;;;;;14.32;7.10;;;;;;;;;;4809063;29;20035;-83
2023/04/21 02:35:58;;;;;;;25.95;7.55;;;;;;;;;;4851035;29;20032;-82
2023/04/21 02:38:23;;;;;;;9.52;6.70;;;;;;;;;;4892905;29;20048;-82
2023/04/21 02:40:49;;;;;;;9.18;6.72;;;;;;;;;;4902129;29;20092;-82
2023/04/21 02:43:15;;;;;;;11.55;7.32;;;;;;;;;;4902697;29;20028;-81
2023/04/21 02:45:40;;;;;;;9.90;7.45;;;;;;;;;;4923499;29;20055;-83
2023/04/21 02:48:05;;;;;;;12.35;7.85;;;;;;;;;;4915241;29;20040;-82
2023/04/21 02:50:31;;;;;;;13.32;8.38;;;;;;;;;;4895184;29;20060;-81
2023/04/21 02:52:56;;;;;;;14.25;8.38;;;;;;;;;;4904422;29;20024;-82
2023/04/21 02:55:22;;;;;;;12.75;8.20;;;;;;;;;;4903276;29;20040;-82
2023/04/21 02:57:47;;;;;;;13.55;8.25;;;;;;;;;;4888757;29;20035;-81
2023/04/21 03:00:13;;;;;;;12.75;7.30;;;;;;;;;;4899453;29;20136;-82
2023/04/21 03:02:39;;;;;;;11.95;7.25;;;;;;;;;;4896569;29;20479;-81
2023/04/21 03:05:05;;;;;;;11.18;7.45;;;;;;;;;;4900417;29;20088;-81
2023/04/21 03:07:30;;;;;;;11.73;8.15;;;;;;;;;;4892123;29;20525;-81
2023/04/21 03:09:56;;;;;;;13.02;8.30;;;;;;;;;;4901934;29;20477;-81
2023/04/21 03:12:21;;;;;;;12.02;7.45;;;;;;;;;;4893808;29;20072;-80
2023/04/21 03:14:46;;;;;;;13.38;7.65;;;;;;;;;;4899791;29;20429;-79
2023/04/21 03:17:12;;;;;;;15.32;8.95;;;;;;;;;;4887927;29;20640;-81
2023/04/21 03:19:37;;;;;;;14.07;8.63;;;;;;;;;;4899780;29;20028;-81
2023/04/21 03:22:03;;;;;;;24.98;9.65;;;;;;;;;;4895216;29;20041;-80
2023/04/21 03:24:28;;;;;;;24.58;9.02;;;;;;;;;;4895776;29;20028;-79
2023/04/21 03:26:55;;;;;;;19.25;9.90;;;;;;;;;;4891162;29;20067;-79
2023/04/21 03:29:21;;;;;;;56.17;10.75;;;;;;;;;;4894833;29;20024;-79
2023/04/21 03:31:46;;;;;;;24.80;9.35;;;;;;;;;;4897643;29;20537;-80
2023/04/21 03:34:12;;;;;;;77.55;10.88;;;;;;;;;;4908591;29;20036;-80
2023/04/21 03:36:37;;;;;;;42.60;9.05;;;;;;;;;;4900106;29;1088107;-80
2023/04/21 03:39:03;;;;;;;14.48;8.73;;;;;;;;;;4945560;29;20352;-82
2023/04/21 03:41:28;;;;;;;28.10;8.95;;;;;;;;;;4943357;29;20042;-79
2023/04/21 03:43:53;;;;;;;36.80;9.07;;;;;;;;;;4959950;28;20138;-84
2023/04/21 03:46:19;;;;;;;19.23;8.02;;;;;;;;;;4953818;28;20043;-81
2023/04/21 03:48:46;;;;;;;26.42;7.28;;;;;;;;;;4946912;29;20035;-80
2023/04/21 03:51:11;;;;;;;11.43;7.22;;;;;;;;;;4944401;29;20143;-81
2023/04/21 03:53:36;;;;;;;31.05;7.53;;;;;;;;;;4946427;29;20488;-81
2023/04/21 03:56:02;;;;;;;40.25;9.57;;;;;;;;;;4942423;28;20063;-81
2023/04/21 03:58:27;;;;;;;41.85;8.65;;;;;;;;;;4934257;29;20059;-81
2023/04/21 04:00:52;;;;;;;11.60;7.35;;;;;;;;;;4941120;29;20028;-80
2023/04/21 04:03:18;;;;;;;11.50;7.38;;;;;;;;;;4948647;28;20026;-81
2023/04/21 04:05:43;;;;;;;40.83;9.52;;;;;;;;;;4935688;29;20029;-81
2023/04/21 04:08:08;;;;;;;14.70;8.32;;;;;;;;;;4934064;29;20091;-81
2023/04/21 04:10:34;;;;;;;16.75;8.77;;;;;;;;;;4938280;29;20067;-82
2023/04/21 04:13:00;;;;;;;12.18;8.07;;;;;;;;;;4934176;29;20066;-81
2023/04/21 04:15:25;;;;;;;17.05;8.73;;;;;;;;;;4934113;29;20023;-82
2023/04/21 04:17:50;;;;;;;14.57;8.60;;;;;;;;;;4936948;29;20035;-82
2023/04/21 04:20:16;;;;;;;14.85;8.20;;;;;;;;;;4949615;28;20511;-82
2023/04/21 04:22:41;;;;;;;14.05;7.88;;;;;;;;;;4934698;29;20032;-82
2023/04/21 04:25:07;;;;;;;12.90;7.18;;;;;;;;;;4933482;29;20024;-81
2023/04/21 04:27:33;;;;;;;17.13;8.70;;;;;;;;;;4949694;28;20110;-83
2023/04/21 04:29:58;;;;;;;15.75;8.32;;;;;;;;;;4937771;29;20019;-83
2023/04/21 04:32:27;;;;;;;10.80;7.50;;;;;;;;;;4957248;28;20054;-81
2023/04/21 04:34:54;;;;;;;16.02;8.85;;;;;;;;;;4946297;28;20029;-83
2023/04/21 04:37:20;;;;;;;13.73;7.20;;;;;;;;;;4952113;28;20031;-83
2023/04/21 04:39:46;;;;;;;56.17;9.02;;;;;;;;;;4954272;28;20031;-82
2023/04/21 04:42:11;;;;;;;36.03;6.80;;;;;;;;;;4959932;28;20086;-83
2023/04/21 04:44:37;;;;;;;14.82;6.95;;;;;;;;;;4961213;28;20035;-81
2023/04/21 04:47:03;;;;;;;21.65;7.97;;;;;;;;;;4969765;28;20065;-84
2023/04/21 04:49:28;;;;;;;9.70;5.57;;;;;;;;;;4948942;29;20019;-84
2023/04/21 04:51:54;;;;;;;11.57;6.43;;;;;;;;;;4958630;28;20039;-83
2023/04/21 04:54:19;;;;;;;13.20;6.47;;;;;;;;;;4954388;28;20030;-83
2023/04/21 04:56:44;;;;;;;20.23;6.13;;;;;;;;;;4942831;29;20041;-85
2023/04/21 04:59:10;;;;;;;11.07;6.15;;;;;;;;;;4936609;28;20030;-84
2023/04/21 05:01:37;;;;;;;23.52;6.65;;;;;;;;;;4955791;28;20105;-85
2023/04/21 05:04:02;;;;;;;11.07;6.28;;;;;;;;;;4958936;28;20031;-85
2023/04/21 05:06:28;;;;;;;11.32;6.25;;;;;;;;;;4961568;28;20075;-85
2023/04/21 05:08:53;;;;;;;16.95;6.72;;;;;;;;;;4936083;28;20051;-85
2023/04/21 05:11:19;;;;;;;9.43;5.97;;;;;;;;;;4941761;29;20023;-85
2023/04/21 05:13:44;;;;;;;10.25;6.28;;;;;;;;;;4962788;28;20102;-84
2023/04/21 05:16:10;;;;;;;10.93;6.80;;;;;;;;;;4962561;28;20042;-83
2023/04/21 05:18:36;;;;;;;10.60;6.50;;;;;;;;;;4948742;29;20027;-84
2023/04/21 05:21:02;;;;;;;12.90;6.88;;;;;;;;;;4942292;28;20519;-84
2023/04/21 05:23:27;;;;;;;17.52;8.07;;;;;;;;;;4964091;28;20038;-85
2023/04/21 05:25:53;;;;;;;13.10;7.57;;;;;;;;;;4964697;28;20043;-83
2023/04/21 05:28:19;;;;;;;10.90;6.75;;;;;;;;;;4944425;29;20030;-83
2023/04/21 05:30:47;;;;;;;10.02;6.63;;;;;;;;;;4959026;28;20031;-84
2023/04/21 05:33:13;;;;;;;15.43;7.63;;;;;;;;;;4937583;28;20075;-84
2023/04/21 05:35:41;;;;;;;13.00;8.18;;;;;;;;;;4969738;28;20030;-83
2023/04/21 05:38:07;;;;;;;15.30;7.95;;;;;;;;;;4960497;28;20035;-83
2023/04/21 05:40:33;;;;;;;19.95;7.32;;;;;;;;;;4963796;28;20078;-85
2023/04/21 05:43:02;;;;;;;29.02;8.02;;;;;;;;;;4966928;28;20031;-83
2023/04/21 05:45:32;;;;;;;22.02;7.35;;;;;;;;;;4959662;28;20132;-83
2023/04/21 05:47:59;;;;;;;15.90;7.97;;;;;;;;;;4958111;28;20035;-82
2023/04/21 05:50:54;;;;;;;;;;;;;;;;;;5037826;23;20049;-82
2023/04/21 05:53:51;;;;;;;15.63;7.03;;;;;;;;;;4982707;28;19921;-83
2023/04/21 05:56:33;;;;;;;13.43;7.82;;;;;;;;;;4998781;28;20462;-84
2023/04/21 06:04:04;;;;;;;18.48;9.00;;;;;;;;;;4978238;28;20047;-83
2023/04/21 06:06:30;;;;;;;16.50;9.43;;;;;;;;;;4990184;28;20086;-83
2023/04/21 06:08:56;;;;;;;19.50;9.30;;;;;;;;;;4960053;28;20030;-83
2023/04/21 06:11:24;;;;;;;19.15;10.60;;;;;;;;;;4981233;28;20549;-82
2023/04/21 06:13:57;;;;;;;17.92;9.18;;;;;;;;;;4989992;28;20053;-83
2023/04/21 06:16:25;;;;;;;21.08;11.15;;;;;;;;;;4971684;28;20081;-83
2023/04/21 06:18:53;;;;;;;16.35;9.93;;;;;;;;;;4992408;28;20487;-81
2023/04/21 06:21:19;;;;;;;21.55;10.50;;;;;;;;;;4970825;28;20030;-82
2023/04/21 06:23:44;;;;;;;18.25;10.63;;;;;;;;;;4954263;28;20451;-83
2023/04/21 06:26:10;;;;;;;18.23;9.85;;;;;;;;;;4970110;28;20038;-83
2023/04/21 06:28:40;;;;;;;17.05;9.52;;;;;;;;;;4987131;28;20027;-82
2023/04/21 06:31:06;;;;;;;17.65;10.60;;;;;;;;;;4976017;28;20031;-83
2023/04/21 06:33:32;;;;;;;24.30;11.55;;;;;;;;;;4986586;28;20030;-82
2023/04/21 06:36:21;;;;;;;24.52;10.63;;;;;;;;;;4995988;28;20022;-81
2023/04/21 06:38:50;;;;;;;19.48;11.77;;;;;;;;;;4980699;28;20072;-84
2023/04/21 06:41:39;;;;;;;23.75;10.40;;;;;;;;;;4998162;28;20110;-85
2023/04/21 06:44:04;;;;;;;20.00;11.68;;;;;;;;;;4960406;28;20499;-84
2023/04/21 06:46:30;;;;;;;17.08;10.00;;;;;;;;;;4972991;28;20034;-84
2023/04/21 06:48:55;;;;;;;17.92;10.35;;;;;;;;;;4961198;28;20024;-83
2023/04/21 06:51:21;;;;;;;18.42;10.68;;;;;;;;;;4973435;28;20030;-84
2023/04/21 06:53:46;;;;;;;19.70;11.23;;;;;;;;;;4986448;28;20037;-83
2023/04/21 06:56:11;;;;;;;16.50;9.73;;;;;;;;;;4990043;28;20019;-83
2023/04/21 06:58:37;;;;;;;21.45;10.43;;;;;;;;;;4972703;28;20026;-83
2023/04/21 07:01:04;;;;;;;16.17;9.68;;;;;;;;;;4973794;28;20038;-83
2023/04/21 07:03:30;;;;;;;18.17;10.05;;;;;;;;;;4985720;28;20090;-83
2023/04/21 07:05:55;;;;;;;15.93;10.02;;;;;;;;;;4987701;28;20029;-84
2023/04/21 07:08:39;;;;;;;16.08;9.95;;;;;;;;;;4969412;28;20099;-83
2023/04/21 07:11:05;;;;;;;14.88;9.13;;;;;;;;;;4984046;28;20461;-82
2023/04/21 07:13:30;;;;;;;17.02;10.18;;;;;;;;;;4962757;28;20111;-82
2023/04/21 07:15:56;;;;;;;17.98;10.75;;;;;;;;;;4979194;28;20034;-82
2023/04/21 07:18:21;;;;;;;19.02;10.10;;;;;;;;;;4958039;28;20035;-83
2023/04/21 07:20:46;;;;;;;18.23;10.75;;;;;;;;;;4963417;28;20028;-82
2023/04/21 07:23:12;;;;;;;17.05;9.23;;;;;;;;;;4992582;28;20081;-83
2023/04/21 07:25:37;;;;;;;20.77;10.38;;;;;;;;;;4991548;28;20086;-82
2023/04/21 07:28:03;;;;;;;14.57;8.77;;;;;;;;;;4970501;28;20035;-82
2023/04/21 07:30:29;;;;;;;16.38;9.45;;;;;;;;;;4959053;28;20027;-82
2023/04/21 07:32:54;;;;;;;12.80;8.45;;;;;;;;;;4970916;28;20487;-82
2023/04/21 07:35:20;;;;;;;15.13;8.80;;;;;;;;;;4961293;28;20042;-82
2023/04/21 07:37:45;;;;;;;14.90;9.30;;;;;;;;;;4981295;28;20033;-82
2023/04/21 07:40:11;;;;;;;15.70;8.68;;;;;;;;;;4953570;28;20034;-82
2023/04/21 07:42:36;;;;;;;19.95;9.60;;;;;;;;;;4966664;28;20045;-82
2023/04/21 07:45:03;;;;;;;16.00;8.82;;;;;;;;;;4964381;28;20026;-83
2023/04/21 07:47:28;;;;;;;12.00;8.05;;;;;;;;;;4991254;28;20068;-85
2023/04/21 07:49:54;;;;;;;14.80;8.55;;;;;;;;;;4977998;28;20026;-83
2023/04/21 07:52:19;;;;;;;12.88;8.43;;;;;;;;;;4993441;28;20030;-84
2023/04/21 07:54:44;;;;;;;10.90;7.95;;;;;;;;;;4985628;28;20143;-84
2023/04/21 07:57:10;;;;;;;11.98;8.48;;;;;;;;;;4985466;28;20088;-84
2023/04/21 07:59:35;;;;;;;11.10;7.65;;;;;;;;;;4985573;28;20050;-84
2023/04/21 08:02:00;;;;;;;11.30;7.22;;;;;;;;;;4984072;28;20034;-83
2023/04/21 08:04:26;;;;;;;11.52;7.88;;;;;;;;;;4983937;28;20093;-82
2023/04/21 08:06:51;;;;;;;13.10;7.90;;;;;;;;;;4983506;28;20026;-84
2023/04/21 08:09:17;;;;;;;13.20;8.13;;;;;;;;;;4968691;28;20039;-84
2023/04/21 08:11:42;;;;;;;10.50;7.40;;;;;;;;;;4973414;28;20042;-83
2023/04/21 08:14:10;;;;;;;14.73;6.78;;;;;;;;;;4969636;28;20029;-84
2023/04/21 08:16:36;;;;;;;14.88;7.13;;;;;;;;;;4960118;28;20034;-84
2023/04/21 08:19:02;;;;;;;11.35;6.80;;;;;;;;;;4967786;28;20118;-83
2023/04/21 08:21:28;;;;;;;10.80;6.85;;;;;;;;;;4965434;28;20038;-83
2023/04/21 08:23:54;;;;;;;13.38;6.75;;;;;;;;;;4961910;28;20019;-83
2023/04/21 08:26:22;;;;;;;10.00;6.38;;;;;;;;;;4953426;28;20030;-82
2023/04/21 08:28:48;;;;;;;7.15;5.38;;;;;;;;;;4967412;28;20026;-87
2023/04/21 08:31:14;;;;;;;8.20;5.68;;;;;;;;;;4962591;28;20089;-82
2023/04/21 08:33:40;;;;;;;8.95;6.00;;;;;;;;;;4987560;28;20090;-84
2023/04/21 08:36:05;;;;;;;7.45;5.38;;;;;;;;;;4973517;28;20045;-82
2023/04/21 08:38:32;;;;;;;7.75;5.55;;;;;;;;;;4986755;28;20042;-82
2023/04/21 08:41:02;;;;;;;8.27;5.13;;;;;;;;;;4965862;28;20018;-81
2023/04/21 08:43:28;;;;;;;7.07;4.10;;;;;;;;;;4982895;28;20080;-82
2023/04/21 08:45:53;;;;;;;7.32;5.25;;;;;;;;;;4957520;28;20018;-82
2023/04/21 08:48:20;;;;;;;7.60;4.10;;;;;;;;;;4984250;28;20034;-81
2023/04/21 08:50:47;;;;;;;9.15;4.57;;;;;;;;;;4981632;28;20037;-83
2023/04/21 08:53:13;;;;;;;7.07;5.00;;;;;;;;;;4989471;28;20026;-82
2023/04/21 08:55:40;;;;;;;7.22;4.32;;;;;;;;;;4956287;28;20030;-82
2023/04/21 08:58:06;;;;;;;7.65;5.07;;;;;;;;;;4972590;28;20033;-83
2023/04/21 09:00:31;;;;;;;9.60;6.20;;;;;;;;;;4962491;28;20030;-82
2023/04/21 09:03:01;;;;;;;7.30;5.20;;;;;;;;;;4976627;28;20057;-83
2023/04/21 09:05:29;;;;;;;7.20;4.80;;;;;;;;;;4973005;28;20060;-82
2023/04/21 09:08:28;;;;;;;8.93;5.53;;;;;;;;;;4994856;28;20026;-83
2023/04/21 09:10:54;;;;;;;6.15;4.35;;;;;;;;;;4931724;28;20066;-82
2023/04/21 09:13:22;;;;;;;8.45;5.43;;;;;;;;;;4963149;28;20035;-82
2023/04/21 09:15:51;;;;;;;7.20;5.43;;;;;;;;;;4968046;28;20026;-81
2023/04/21 09:18:22;;;;;;;10.05;6.75;;;;;;;;;;4991395;28;20754;-82
2023/04/21 09:20:49;;;;;;;9.07;6.15;;;;;;;;;;4980446;28;20069;-81
2023/04/21 09:23:15;;;;;;;8.77;5.35;;;;;;;;;;4984952;28;20030;-82
2023/04/21 09:25:42;;;;;;;8.20;5.57;;;;;;;;;;4953325;28;20034;-83
2023/04/21 09:28:12;;;;;;;9.27;5.45;;;;;;;;;;4966585;28;20095;-81
2023/04/21 09:30:40;;;;;;;12.27;5.78;;;;;;;;;;4969675;28;20039;-82
2023/04/21 09:33:06;;;;;;;7.05;4.80;;;;;;;;;;4968436;28;20414;-82
2023/04/21 09:35:35;;;;;;;7.30;5.05;;;;;;;;;;4982406;28;20023;-82
2023/04/21 09:38:02;;;;;;;8.05;4.78;;;;;;;;;;4994345;28;20056;-82
2023/04/21 09:40:30;;;;;;;8.65;5.72;;;;;;;;;;4974798;28;20437;-81
2023/04/21 09:42:56;;;;;;;6.63;5.07;;;;;;;;;;4961908;28;20097;-83
2023/04/21 09:45:28;;;;;;;9.93;5.10;;;;;;;;;;4969328;28;20034;-83
2023/04/21 09:47:56;;;;;;;9.00;5.13;;;;;;;;;;4993903;28;20026;-82
2023/04/21 09:50:23;;;;;;;7.07;4.57;;;;;;;;;;4973688;28;20054;-83
2023/04/21 09:52:53;;;;;;;9.55;5.20;;;;;;;;;;4981853;28;20341;-83
2023/04/21 09:55:25;;;;;;;9.48;5.65;;;;;;;;;;4989977;28;20029;-82
2023/04/21 09:57:51;;;;;;;7.53;4.75;;;;;;;;;;4969084;28;20022;-83
2023/04/21 10:00:18;;;;;;;11.32;5.05;;;;;;;;;;4963844;28;20113;-82
2023/04/21 10:02:47;;;;;;;7.90;5.28;;;;;;;;;;4994456;28;20037;-83
2023/04/21 10:05:13;;;;;;;8.73;6.38;;;;;;;;;;4960779;28;20023;-81
2023/04/21 10:07:38;;;;;;;7.03;4.90;;;;;;;;;;4962770;28;20041;-83
2023/04/21 10:10:07;;;;;;;7.47;5.63;;;;;;;;;;4981290;28;20034;-83
2023/04/21 10:12:33;;;;;;;8.18;4.90;;;;;;;;;;4991521;28;20022;-82
2023/04/21 10:15:04;;;;;;;7.65;4.75;;;;;;;;;;4988884;28;20093;-83
2023/04/21 10:17:35;;;;;;;8.80;5.22;;;;;;;;;;4983152;28;20037;-82
2023/04/21 10:20:05;;;;;;;7.47;4.95;;;;;;;;;;4984485;28;20033;-81
2023/04/21 10:22:32;;;;;;;10.52;5.65;;;;;;;;;;4989832;28;20483;-82
2023/04/21 10:25:00;;;;;;;7.47;5.25;;;;;;;;;;4973086;28;20041;-82
2023/04/21 10:27:36;;;;;;;10.55;5.32;;;;;;;;;;4969209;28;20027;-82
2023/04/21 10:30:22;;;;;;;6.82;4.68;;;;;;;;;;4983123;28;20027;-82
2023/04/21 10:33:00;;;;;;;11.05;5.35;;;;;;;;;;4983361;28;20058;-82
2023/04/21 10:36:03;;;;;;;10.45;5.65;;;;;;;;;;4982471;28;20502;-82
2023/04/21 10:38:34;;;;;;;9.05;4.82;;;;;;;;;;4962032;28;20069;-82
2023/04/21 10:41:26;;;;;;;8.18;5.43;;;;;;;;;;4965467;28;20438;-81
2023/04/21 10:43:52;;;;;;;6.03;4.97;;;;;;;;;;4985710;28;20021;-82
2023/04/21 10:46:35;;;;;;;8.90;5.30;;;;;;;;;;4969964;28;20014;-82
2023/04/21 10:49:10;;;;;;;6.88;4.55;;;;;;;;;;4986208;28;20034;-81
2023/04/21 10:52:04;;;;;;;6.28;4.60;;;;;;;;;;4970927;28;20443;-81
2023/04/21 10:54:44;;;;;;;7.07;4.65;;;;;;;;;;4967996;28;20053;-82
2023/04/21 10:57:12;;;;;;;6.28;4.88;;;;;;;;;;4969438;28;20030;-82
2023/04/21 10:59:38;;;;;;;6.68;5.00;;;;;;;;;;4949392;28;20031;-83
2023/04/21 11:02:09;;;;;;;5.40;4.22;;;;;;;;;;4966686;28;20034;-82
2023/04/21 11:04:35;;;;;;;9.43;4.93;;;;;;;;;;4989436;28;20085;-82
2023/04/21 11:07:12;;;;;;;7.18;4.72;;;;;;;;;;4962361;28;20027;-83
2023/04/21 11:09:39;;;;;;;7.60;4.95;;;;;;;;;;4983101;28;20438;-82
2023/04/21 11:12:07;;;;;;;9.25;5.22;;;;;;;;;;4995570;28;20019;-82
2023/04/21 11:14:34;;;;;;;7.97;5.38;;;;;;;;;;4982382;28;20491;-81
2023/04/21 11:17:01;;;;;;;6.28;4.47;;;;;;;;;;4984951;28;20039;-82
2023/04/21 11:19:26;;;;;;;5.38;3.97;;;;;;;;;;4964479;28;20037;-83
2023/04/21 11:21:53;;;;;;;9.77;5.20;;;;;;;;;;4961838;28;20027;-83
2023/04/21 11:24:19;;;;;;;7.53;4.55;;;;;;;;;;4962909;28;20399;-83
2023/04/21 11:26:45;;;;;;;5.70;4.20;;;;;;;;;;4984771;28;20029;-83
2023/04/21 11:29:10;;;;;;;6.68;4.35;;;;;;;;;;4961149;28;20394;-83
2023/04/21 11:31:39;;;;;;;6.53;4.63;;;;;;;;;;4970967;28;20054;-82
2023/04/21 11:34:05;;;;;;;6.32;4.55;;;;;;;;;;4990389;28;20046;-81
2023/04/21 11:36:35;;;;;;;6.50;4.53;;;;;;;;;;4969420;28;20161;-82
2023/04/21 11:39:07;;;;;;;6.40;4.53;;;;;;;;;;4979816;28;20074;-83
2023/04/21 11:41:32;;;;;;;6.40;4.22;;;;;;;;;;4977327;28;20019;-82
2023/04/21 11:43:58;;;;;;;5.43;3.63;;;;;;;;;;4979007;28;20467;-83
2023/04/21 11:46:25;;;;;;;6.43;4.47;;;;;;;;;;4957411;28;20055;-83
2023/04/21 11:49:09;;;;;;;6.53;3.97;;;;;;;;;;4957548;28;20040;-84
2023/04/21 11:51:37;;;;;;;5.80;4.30;;;;;;;;;;4959816;28;20090;-82
2023/04/21 11:54:05;;;;;;;5.72;4.40;;;;;;;;;;4961407;28;20026;-83
2023/04/21 11:56:35;;;;;;;4.93;3.53;;;;;;;;;;4970700;28;20018;-83
2023/04/21 11:59:05;;;;;;;5.13;3.53;;;;;;;;;;4986328;28;20046;-82
2023/04/21 12:01:31;;;;;;;10.50;3.72;;;;;;;;;;4990423;28;20081;-83
2023/04/21 12:03:56;;;;;;;7.28;4.20;;;;;;;;;;4975285;28;20507;-82
2023/04/21 12:06:27;;;;;;;5.32;3.85;;;;;;;;;;4975835;28;20121;-82
2023/04/21 12:09:00;;;;;;;8.03;4.07;;;;;;;;;;4963195;28;20384;-84
2023/04/21 12:11:29;;;;;;;4.68;3.22;;;;;;;;;;4963179;28;20349;-82
2023/04/21 12:13:59;;;;;;;7.15;3.72;;;;;;;;;;5004348;28;20030;-84
2023/04/21 12:16:26;;;;;;;4.65;3.40;;;;;;;;;;4983217;28;20030;-83
2023/04/21 12:18:52;;;;;;;5.20;3.42;;;;;;;;;;4973363;28;20023;-82
2023/04/21 12:21:17;;;;;;;5.18;3.38;;;;;;;;;;4982515;28;20053;-82
2023/04/21 12:23:43;;;;;;;6.60;3.33;;;;;;;;;;4976151;28;20110;-82
2023/04/21 12:26:09;;;;;;;4.95;3.53;;;;;;;;;;4984760;28;20083;-82
2023/04/21 12:28:35;;;;;;;4.45;3.35;;;;;;;;;;4963773;28;20038;-81
2023/04/21 12:31:01;;;;;;;4.32;2.78;;;;;;;;;;4984291;28;20022;-83
2023/04/21 12:33:26;;;;;;;4.47;3.30;;;;;;;;;;4960202;28;20113;-81
2023/04/21 12:35:51;;;;;;;4.60;3.00;;;;;;;;;;4973313;28;20030;-82
2023/04/21 12:38:17;;;;;;;3.70;2.65;;;;;;;;;;4967513;28;20486;-82
2023/04/21 12:40:42;;;;;;;4.93;3.15;;;;;;;;;;4969936;28;20033;-82
2023/04/21 12:43:07;;;;;;;4.95;3.20;;;;;;;;;;4980624;28;20026;-82
2023/04/21 12:45:33;;;;;;;5.68;3.50;;;;;;;;;;4982033;28;20444;-82
2023/04/21 12:47:58;;;;;;;7.80;5.00;;;;;;;;;;4988171;28;20030;-81
2023/04/21 12:50:24;;;;;;;4.43;3.50;;;;;;;;;;4958889;28;20022;-82
2023/04/21 12:52:50;;;;;;;6.85;3.50;;;;;;;;;;4983736;28;20051;-82
2023/04/21 12:55:16;;;;;;;7.40;3.63;;;;;;;;;;4979500;28;20104;-82
2023/04/21 12:57:43;;;;;;;4.90;3.08;;;;;;;;;;4958683;28;20034;-81
2023/04/21 13:00:11;;;;;;;4.55;3.13;;;;;;;;;;4975026;28;20578;-82
2023/04/21 13:02:37;;;;;;;5.05;3.30;;;;;;;;;;4949476;28;20035;-82
2023/04/21 13:05:05;;;;;;;3.45;2.72;;;;;;;;;;4962368;28;20105;-83
2023/04/21 13:07:33;;;;;;;4.07;2.75;;;;;;;;;;4955614;28;20026;-83
2023/04/21 13:09:58;;;;;;;3.55;2.67;;;;;;;;;;4982147;28;20034;-81
2023/04/21 13:12:24;;;;;;;4.93;3.25;;;;;;;;;;4960156;28;20018;-82
2023/04/21 13:14:49;;;;;;;5.00;3.65;;;;;;;;;;4979149;28;20018;-82
2023/04/21 13:17:15;;;;;;;7.00;2.97;;;;;;;;;;4983622;28;20030;-81
2023/04/21 13:19:40;;;;;;;5.63;3.40;;;;;;;;;;4977938;28;20076;-81
2023/04/21 13:22:06;;;;;;;5.40;3.40;;;;;;;;;;4964628;28;20393;-82
2023/04/21 13:24:31;;;;;;;4.40;3.08;;;;;;;;;;4984446;28;20426;-81
2023/04/21 13:26:57;;;;;;;4.55;2.80;;;;;;;;;;4975572;28;20022;-82
2023/04/21 13:29:23;;;;;;;6.03;3.30;;;;;;;;;;4980999;28;20164;-82
2023/04/21 13:31:48;;;;;;;3.75;2.70;;;;;;;;;;4984177;28;20023;-81
2023/04/21 13:34:14;;;;;;;3.70;2.70;;;;;;;;;;4977126;28;20026;-81
2023/04/21 13:36:40;;;;;;;5.45;3.20;;;;;;;;;;4966741;28;20022;-82
2023/04/21 13:39:09;;;;;;;4.72;2.85;;;;;;;;;;4973470;28;20022;-81
2023/04/21 13:41:34;;;;;;;3.53;2.60;;;;;;;;;;4981926;28;20383;-82
2023/04/21 13:44:00;;;;;;;4.47;2.63;;;;;;;;;;4975059;28;20516;-81
2023/04/21 13:46:25;;;;;;;4.15;3.50;;;;;;;;;;4969930;28;20046;-82
2023/04/21 13:48:51;;;;;;;4.80;2.92;;;;;;;;;;4982598;28;20023;-80
2023/04/21 13:51:17;;;;;;;5.95;3.33;;;;;;;;;;4972186;28;20058;-80
2023/04/21 13:53:42;;;;;;;5.15;3.28;;;;;;;;;;4989020;28;20517;-81
2023/04/21 13:56:09;;;;;;;5.30;3.55;;;;;;;;;;4966157;28;20027;-81
2023/04/21 13:58:35;;;;;;;3.35;2.95;;;;;;;;;;4989012;28;20018;-82
2023/04/21 14:01:00;;;;;;;4.18;2.95;;;;;;;;;;4962882;28;20409;-79
2023/04/21 14:03:25;;;;;;;5.07;3.10;;;;;;;;;;4988630;28;20027;-83
2023/04/21 14:05:51;;;;;;;8.55;3.00;;;;;;;;;;4973895;28;20101;-79
2023/04/21 14:08:16;;;;;;;4.38;2.70;;;;;;;;;;4981913;28;20129;-81
2023/04/21 14:10:42;;;;;;;3.78;2.78;;;;;;;;;;4986508;28;20023;-81
2023/04/21 14:13:07;;;;;;;5.65;3.05;;;;;;;;;;4978937;28;20026;-80
2023/04/21 14:15:33;;;;;;;3.30;2.70;;;;;;;;;;4985621;28;20073;-80
2023/04/21 14:17:59;;;;;;;3.30;2.53;;;;;;;;;;4960395;28;20041;-81
2023/04/21 14:20:24;;;;;;;6.63;2.80;;;;;;;;;;4981080;28;20030;-81
2023/04/21 14:22:49;;;;;;;3.90;2.78;;;;;;;;;;4964646;28;20121;-80
2023/04/21 14:25:15;;;;;;;4.28;2.78;;;;;;;;;;4980262;28;20022;-81
2023/04/21 14:27:41;;;;;;;7.75;3.13;;;;;;;;;;4981523;28;20034;-82
2023/04/21 14:30:06;;;;;;;4.43;3.10;;;;;;;;;;4983342;28;20085;-80
2023/04/21 14:32:32;;;;;;;4.13;2.85;;;;;;;;;;4987868;28;20659;-81
2023/04/21 14:34:59;;;;;;;4.63;3.13;;;;;;;;;;4988988;28;20022;-80
2023/04/21 14:37:25;;;;;;;3.85;2.80;;;;;;;;;;4969211;28;20030;-80
2023/04/21 14:39:50;;;;;;;4.25;3.00;;;;;;;;;;4980176;28;20109;-81
2023/04/21 14:42:17;;;;;;;4.95;2.80;;;;;;;;;;4973537;28;20065;-80
2023/04/21 14:44:42;;;;;;;3.97;3.20;;;;;;;;;;4952886;28;20495;-81